Time;durP1;ratioP1;P1;durP2;ratioP2;P2;SDS_P1;SDS_P2;PMS_P1;PMS_P2;Temp;Humidity;BMP_temperature;BMP_pressure;BME280_temperature;BME280_humidity;BME280_pressure;Samples;Min_cycle;Max_cycle;Signal;HPM_P1;HPM_P2
2021/04/19 00:00:00;;;;;;;0.70;0.60;;;9.40;99.90;;;10.02;100.00;-20954.69;5093927;28;20420;-71
2021/04/19 00:02:27;;;;;;;0.70;0.60;;;9.40;99.90;;;9.98;100.00;-20953.56;5101832;28;20436;-72
2021/04/19 00:04:55;;;;;;;0.70;0.60;;;9.30;99.90;;;9.90;100.00;-20951.50;5086442;28;20452;-72
2021/04/19 00:07:22;;;;;;;0.70;0.60;;;9.30;99.90;;;9.81;100.00;-20949.13;5093947;28;20426;-71
2021/04/19 00:09:49;;;;;;;0.70;0.50;;;9.20;99.90;;;9.80;100.00;-20809.28;5093330;28;20501;-71
2021/04/19 00:12:16;;;;;;;0.70;0.60;;;9.20;99.90;;;9.77;100.00;-16889.19;5093349;28;20456;-71
2021/04/19 00:14:43;;;;;;;0.70;0.57;;;9.20;99.90;;;9.78;100.00;-14544.63;5077172;28;20970;-71
2021/04/19 00:17:10;;;;;;;2.70;1.07;;;9.20;99.90;;;9.80;100.00;-13469.66;5078992;28;20814;-71
2021/04/19 00:19:37;;;;;;;0.70;0.57;;;9.20;99.90;;;9.76;100.00;-14566.84;5088302;28;20532;-71
2021/04/19 00:22:04;;;;;;;0.70;0.60;;;9.20;99.90;;;9.73;100.00;-16347.44;5072312;28;20438;-71
2021/04/19 00:24:32;;;;;;;0.70;0.50;;;9.20;99.90;;;9.68;100.00;-17535.97;5073615;28;20461;-71
2021/04/19 00:26:59;;;;;;;0.70;0.60;;;9.20;99.90;;;9.64;100.00;-18481.03;5073186;28;20468;-71
2021/04/19 00:29:25;;;;;;;0.80;0.63;;;9.10;99.90;;;9.55;100.00;-20267.44;5086227;28;20430;-71
2021/04/19 00:31:52;;;;;;;0.70;0.70;;;9.10;99.90;;;9.46;100.00;-20939.56;5089233;28;20877;-71
2021/04/19 00:34:20;;;;;;;1.00;0.80;;;9.00;99.90;;;9.40;100.00;-20937.91;5082374;28;20552;-70
2021/04/19 00:36:47;;;;;;;0.70;0.60;;;8.90;99.90;;;9.32;100.00;-20935.84;5083442;28;20938;-71
2021/04/19 00:39:14;;;;;;;0.70;0.57;;;8.80;99.90;;;9.22;100.00;-20932.94;5073137;28;21039;-70
2021/04/19 00:41:43;;;;;;;0.90;0.90;;;8.80;99.90;;;9.13;100.00;-20930.72;5075266;28;20462;-71
2021/04/19 00:44:10;;;;;;;0.70;0.50;;;8.70;99.90;;;9.04;100.00;-20928.09;5082787;28;20492;-70
2021/04/19 00:46:37;;;;;;;0.70;0.60;;;8.70;99.90;;;8.89;100.00;-20924.06;5093737;28;20415;-71
2021/04/19 00:49:04;;;;;;;1.27;1.20;;;8.60;99.90;;;8.85;100.00;-20922.94;5092949;28;20422;-71
2021/04/19 00:51:31;;;;;;;0.70;0.60;;;8.50;99.90;;;8.80;100.00;-20921.72;5071345;28;20434;-71
2021/04/19 00:54:00;;;;;;;0.70;0.60;;;8.50;99.90;;;8.80;100.00;-20921.72;5073417;28;20435;-71
2021/04/19 00:56:27;;;;;;;0.70;0.60;;;8.60;99.90;;;8.86;100.00;-20923.22;5072828;28;20442;-71
2021/04/19 00:58:54;;;;;;;0.70;0.60;;;8.60;99.90;;;8.85;100.00;-20922.94;5072321;28;20466;-71
2021/04/19 01:01:21;;;;;;;0.70;0.53;;;8.50;99.90;;;8.93;100.00;-20925.16;5070828;28;20537;-71
2021/04/19 01:03:49;;;;;;;0.70;0.60;;;8.60;99.90;;;8.92;100.00;-20925.03;5086852;28;20452;-70
2021/04/19 01:06:16;;;;;;;0.70;0.50;;;8.60;99.90;;;8.90;100.00;-20924.34;5092274;28;20445;-70
2021/04/19 01:08:43;;;;;;;0.70;0.60;;;8.50;99.90;;;8.84;100.00;-20922.69;5091430;28;20438;-70
2021/04/19 01:11:11;;;;;;;1.13;1.03;;;8.50;99.90;;;8.83;100.00;-20922.53;5093017;28;20419;-70
2021/04/19 01:13:38;;;;;;;0.90;0.90;;;8.40;99.90;;;8.83;100.00;-20922.53;5082055;28;20542;-70
2021/04/19 01:16:06;;;;;;;0.70;0.60;;;8.50;99.90;;;8.83;100.00;-20922.41;5071428;28;20463;-71
2021/04/19 01:18:35;;;;;;;0.70;0.50;;;8.40;99.90;;;8.84;100.00;-20922.69;5071805;28;20485;-71
2021/04/19 01:21:05;;;;;;;0.70;0.60;;;8.40;99.90;;;8.83;100.00;-20922.41;5088764;28;20521;-70
2021/04/19 01:23:33;;;;;;;0.70;0.50;;;8.40;99.90;;;8.84;100.00;-20922.69;5091705;28;20442;-70
2021/04/19 01:26:01;;;;;;;0.70;0.60;;;8.40;99.90;;;8.83;100.00;-20922.41;5091209;28;20454;-70
2021/04/19 01:28:49;;;;;;;0.70;0.63;;;8.40;99.90;;;8.81;100.00;-20921.84;5087470;28;20423;-70
2021/04/19 01:31:16;;;;;;;0.70;0.60;;;8.30;99.90;;;8.79;100.00;-20921.44;5084972;28;20796;-71
2021/04/19 01:33:44;;;;;;;0.70;0.60;;;8.30;99.90;;;8.77;100.00;-20920.75;5067637;28;20435;-70
2021/04/19 01:36:13;;;;;;;0.90;0.90;;;8.30;99.90;;;8.78;100.00;-20921.00;5089842;28;20444;-70
2021/04/19 01:38:40;;;;;;;0.70;0.60;;;8.30;99.90;;;8.72;100.00;-20919.50;5091613;28;20465;-71
2021/04/19 01:41:08;;;;;;;0.70;0.63;;;8.30;99.90;;;8.70;100.00;-20918.94;5091961;28;20437;-71
2021/04/19 01:43:35;;;;;;;0.80;0.70;;;8.30;99.90;;;8.66;100.00;-20917.81;5096573;28;20456;-71
2021/04/19 01:46:06;;;;;;;0.70;0.60;;;8.30;99.90;;;8.65;100.00;-20917.69;5090591;28;20818;-70
2021/04/19 01:48:33;;;;;;;0.70;0.60;;;8.20;99.90;;;8.72;100.00;-20919.50;5086643;28;20433;-71
2021/04/19 01:51:02;;;;;;;0.80;0.70;;;8.30;99.90;;;8.71;100.00;-20919.34;5079408;28;20446;-71
2021/04/19 01:53:33;;;;;;;0.70;0.60;;;8.30;99.90;;;8.66;100.00;-20917.81;5074789;28;20859;-71
2021/04/19 01:56:02;;;;;;;0.70;0.50;;;8.30;99.90;;;8.62;100.00;-20916.84;5085948;28;20446;-70
2021/04/19 01:58:32;;;;;;;0.70;0.60;;;8.30;99.90;;;8.57;100.00;-20915.47;5085342;28;20470;-70
2021/04/19 02:01:01;;;;;;;0.70;0.57;;;8.20;99.90;;;8.73;100.00;-20919.63;5075797;28;20465;-70
2021/04/19 02:03:59;;;;;;;0.70;0.60;;;8.30;99.90;;;8.66;100.00;-20917.81;5074578;28;20453;-70
2021/04/19 02:06:39;;;;;;;0.70;0.60;;;8.30;99.90;;;8.71;100.00;-20919.22;5058976;28;20530;-70
2021/04/19 02:09:17;;;;;;;0.70;0.60;;;8.30;99.90;;;8.80;100.00;-20921.56;5081070;28;20437;-70
2021/04/19 02:12:00;;;;;;;0.70;0.57;;;8.40;99.90;;;8.79;100.00;-20921.44;5094674;28;20457;-70
2021/04/19 02:14:41;;;;;;;0.70;0.60;;;8.40;99.90;;;8.82;100.00;-20922.25;5093103;28;20426;-71
2021/04/19 02:17:27;;;;;;;0.70;0.60;;;8.40;99.90;;;8.79;100.00;-20921.44;5094808;28;20453;-70
2021/04/19 02:20:09;;;;;;;0.70;0.60;;;8.40;99.90;;;8.79;100.00;-20921.28;5086038;28;20463;-70
2021/04/19 02:22:40;;;;;;;0.70;0.60;;;8.30;99.90;;;8.80;100.00;-20921.56;5075699;28;20415;-70
2021/04/19 02:25:16;;;;;;;1.00;0.90;;;8.30;99.90;;;8.80;100.00;-20921.72;5073992;28;20518;-70
2021/04/19 02:27:50;;;;;;;0.70;0.60;;;8.30;99.90;;;8.82;100.00;-20922.13;5075620;28;20447;-71
2021/04/19 02:30:21;;;;;;;0.70;0.60;;;8.40;99.90;;;9.05;100.00;-20928.34;5075567;28;20492;-70
2021/04/19 02:32:52;;;;;;;0.70;0.60;;;8.40;99.90;;;8.88;100.00;-20923.78;5079384;28;20541;-70
2021/04/19 02:35:25;;;;;;;0.70;0.60;;;8.40;99.90;;;8.91;100.00;-20924.63;5075521;28;20426;-70
2021/04/19 02:38:02;;;;;;;0.70;0.60;;;8.40;99.90;;;8.89;100.00;-20924.06;5086296;28;20435;-70
2021/04/19 02:40:36;;;;;;;0.70;0.60;;;8.40;99.90;;;8.88;100.00;-20923.94;5075184;28;20438;-70
2021/04/19 02:43:06;;;;;;;0.70;0.60;;;8.40;99.90;;;9.09;100.00;-20929.47;5082436;28;20474;-71
2021/04/19 02:45:40;;;;;;;0.67;0.50;;;8.40;99.90;;;9.03;100.00;-20927.94;5095003;28;20414;-70
2021/04/19 02:48:21;;;;;;;0.70;0.60;;;8.40;99.90;;;9.00;100.00;-20927.13;5095361;28;20492;-71
2021/04/19 02:50:56;;;;;;;0.70;0.60;;;8.40;99.90;;;9.07;100.00;-20929.06;5078874;28;20777;-71
2021/04/19 02:53:24;;;;;;;0.70;0.50;;;8.40;99.90;;;8.92;100.00;-20925.03;5074666;28;20431;-70
2021/04/19 02:55:54;;;;;;;0.70;0.50;;;8.40;99.90;;;8.98;100.00;-20926.56;5084112;28;20453;-70
2021/04/19 02:58:37;;;;;;;0.70;0.60;;;8.40;99.90;;;9.06;100.00;-20928.78;5093584;28;20523;-70
2021/04/19 03:01:07;;;;;;;0.70;0.60;;;8.40;99.90;;;9.04;100.00;-20928.09;5086358;28;20508;-70
2021/04/19 03:03:39;;;;;;;0.70;0.60;;;8.40;99.90;;;8.94;100.00;-20925.44;5074327;28;20443;-70
2021/04/19 03:06:09;;;;;;;0.70;0.60;;;8.40;99.90;;;8.93;100.00;-20925.31;5089729;28;20445;-70
2021/04/19 03:08:46;;;;;;;0.70;0.60;;;8.30;99.90;;;8.96;100.00;-20926.00;5093741;28;20502;-71
2021/04/19 03:11:19;;;;;;;0.70;0.70;;;8.30;99.90;;;8.96;100.00;-20926.00;5093589;28;20430;-70
2021/04/19 03:13:52;;;;;;;1.17;1.07;;;8.30;99.90;;;8.74;100.00;-20919.91;5093018;28;20529;-70
2021/04/19 03:16:31;;;;;;;0.70;0.60;;;8.20;99.90;;;8.81;100.00;-20921.84;5093369;28;20426;-71
2021/04/19 03:19:08;;;;;;;0.70;0.50;;;8.20;99.90;;;8.91;100.00;-20924.63;5089654;28;21033;-71
2021/04/19 03:21:39;;;;;;;0.70;0.50;;;8.30;99.90;;;8.90;100.00;-20924.34;5072756;28;20446;-71
2021/04/19 03:24:18;;;;;;;0.70;0.60;;;8.30;99.90;;;8.81;100.00;-20921.84;5072935;28;20556;-70
2021/04/19 03:26:58;;;;;;;1.37;0.90;;;8.20;99.90;;;8.89;100.00;-20924.06;5080665;28;20973;-70
2021/04/19 03:29:30;;;;;;;0.70;0.57;;;8.20;99.90;;;8.85;100.00;-20922.94;5093040;28;20443;-70
2021/04/19 03:32:16;;;;;;;0.70;0.60;;;8.20;99.90;;;8.93;100.00;-20925.16;5091856;28;20440;-70
2021/04/19 03:34:48;;;;;;;0.70;0.50;;;8.20;99.90;;;8.87;100.00;-20923.50;5076975;28;20431;-71
2021/04/19 03:37:25;;;;;;;0.70;0.50;;;8.20;99.90;;;8.93;100.00;-20925.31;5072813;28;20435;-71
2021/04/19 03:39:58;;;;;;;0.70;0.60;;;8.20;99.90;;;8.91;100.00;-20924.63;5072320;28;20470;-70
2021/04/19 03:42:30;;;;;;;0.70;0.50;;;8.20;99.90;;;8.79;100.00;-20921.28;5072676;28;20469;-71
2021/04/19 03:45:02;;;;;;;0.70;0.60;;;8.20;99.90;;;8.93;100.00;-20925.31;5072946;28;20525;-70
2021/04/19 03:47:52;;;;;;;0.70;0.50;;;8.20;99.90;;;8.90;100.00;-20924.34;5082206;28;20466;-70
2021/04/19 03:50:29;;;;;;;0.70;0.60;;;8.20;99.90;;;8.87;100.00;-20923.50;5075543;28;20434;-70
2021/04/19 03:52:59;;;;;;;0.70;0.60;;;8.10;99.90;;;8.81;100.00;-20921.84;5084091;28;20462;-71
2021/04/19 03:55:28;;;;;;;0.70;0.60;;;8.10;99.90;;;8.85;100.00;-20922.94;5092497;28;20432;-71
2021/04/19 03:57:58;;;;;;;0.70;0.60;;;8.10;99.90;;;8.90;100.00;-20924.34;5092274;28;21003;-71
2021/04/19 04:00:37;;;;;;;0.70;0.50;;;8.10;99.90;;;8.84;100.00;-20922.81;5089801;28;20479;-71
2021/04/19 04:03:23;;;;;;;0.70;0.50;;;8.10;99.90;;;8.52;100.00;-20913.94;5073138;28;20427;-72
2021/04/19 04:06:17;;;;;;;0.70;0.60;;;8.00;99.90;;;8.38;100.00;-20910.19;5078530;28;20427;-73
2021/04/19 04:08:46;;;;;;;0.90;0.80;;;7.80;99.90;;;8.35;100.00;-20909.50;5077063;28;20961;-71
2021/04/19 04:11:16;;;;;;;0.70;0.60;;;7.70;99.90;;;8.48;100.00;-20912.97;5078710;28;20423;-73
2021/04/19 04:13:49;;;;;;;0.70;0.50;;;7.60;99.90;;;8.20;100.00;-20905.47;5072470;28;20435;-74
2021/04/19 04:16:16;;;;;;;0.70;0.60;;;7.50;99.90;;;8.13;100.00;-20903.53;5075398;28;20439;-73
2021/04/19 04:19:04;;;;;;;0.70;0.60;;;7.40;99.90;;;8.12;100.00;-20903.13;5081075;28;20561;-73
2021/04/19 04:21:38;;;;;;;0.70;0.70;;;7.30;99.90;;;7.95;100.00;-20898.53;5091724;28;20454;-73
2021/04/19 04:24:18;;;;;;;0.70;0.60;;;7.30;99.90;;;7.85;100.00;-20895.91;5084052;28;20449;-72
2021/04/19 04:26:45;;;;;;;0.70;0.60;;;7.20;99.90;;;7.85;100.00;-20895.75;5088946;28;20913;-72
2021/04/19 04:29:14;;;;;;;0.70;0.60;;;7.20;99.90;;;7.87;100.00;-20896.31;5072431;28;20438;-73
2021/04/19 04:31:49;;;;;;;0.70;0.60;;;7.20;99.90;;;7.89;100.00;-20896.88;5081745;28;20964;-72
2021/04/19 04:34:17;;;;;;;0.70;0.60;;;7.20;99.90;;;7.74;100.00;-20893.00;5078009;28;20446;-72
2021/04/19 04:36:46;;;;;;;0.70;0.60;;;7.10;99.90;;;7.73;100.00;-20892.72;5081078;28;20199;-72
2021/04/19 04:39:16;;;;;;;0.70;0.60;;;7.10;99.90;;;7.77;100.00;-20893.53;5085819;28;20470;-72
2021/04/19 04:41:48;;;;;;;0.70;0.60;;;7.10;99.90;;;7.74;100.00;-20893.00;5081630;28;20454;-72
2021/04/19 04:44:24;;;;;;;0.70;0.50;;;7.10;99.90;;;7.79;100.00;-20894.09;5071230;28;20435;-72
2021/04/19 04:47:03;;;;;;;0.70;0.60;;;7.10;99.90;;;7.78;100.00;-20893.81;5071164;28;20427;-72
2021/04/19 04:49:40;;;;;;;0.70;0.60;;;7.10;99.90;;;7.89;100.00;-20896.88;5073853;28;20432;-72
2021/04/19 04:52:08;;;;;;;0.70;0.60;;;7.10;99.90;;;7.80;100.00;-20894.38;5074461;28;20458;-72
2021/04/19 04:54:39;;;;;;;0.70;0.50;;;7.10;99.90;;;7.77;100.00;-20893.69;5071703;28;20455;-72
2021/04/19 04:57:07;;;;;;;0.70;0.50;;;7.10;99.90;;;7.71;100.00;-20892.00;5079818;28;20457;-72
2021/04/19 04:59:37;;;;;;;0.70;0.60;;;7.10;99.90;;;7.70;100.00;-20891.88;5092752;28;20535;-72
2021/04/19 05:02:06;;;;;;;0.70;0.60;;;7.10;99.90;;;7.68;100.00;-20891.31;5075082;28;20477;-72
2021/04/19 05:04:34;;;;;;;0.70;0.60;;;7.10;99.90;;;7.71;100.00;-20892.16;5075180;28;20430;-72
2021/04/19 05:07:02;;;;;;;0.70;0.60;;;7.20;99.90;;;7.70;100.00;-20891.88;5091754;28;20493;-72
2021/04/19 05:09:29;;;;;;;0.70;0.60;;;7.10;99.90;;;7.70;100.00;-20891.88;5108703;28;20472;-72
2021/04/19 05:11:56;;;;;;;0.77;0.67;;;7.10;99.90;;;7.73;100.00;-20892.72;5091311;28;20456;-71
2021/04/19 05:14:26;;;;;;;0.70;0.63;;;7.10;99.90;;;7.70;100.00;-20891.88;5071130;28;20447;-71
2021/04/19 05:16:54;;;;;;;0.70;0.60;;;7.10;99.90;;;7.70;100.00;-20891.75;5075465;28;20423;-72
2021/04/19 05:19:22;;;;;;;0.70;0.60;;;7.10;99.90;;;7.71;100.00;-20892.16;5077380;28;20530;-72
2021/04/19 05:21:49;;;;;;;0.70;0.53;;;7.10;99.90;;;7.73;100.00;-20892.72;5096746;28;20430;-72
2021/04/19 05:24:16;;;;;;;0.70;0.60;;;7.10;99.90;;;7.79;100.00;-20894.25;5096400;28;20452;-73
2021/04/19 05:26:44;;;;;;;0.70;0.60;;;7.10;99.90;;;7.75;100.00;-20893.25;5094639;28;20477;-72
2021/04/19 05:29:11;;;;;;;0.70;0.50;;;7.10;99.90;;;7.80;100.00;-20894.38;5090537;28;20454;-72
2021/04/19 05:31:38;;;;;;;0.70;0.50;;;7.10;99.90;;;7.79;100.00;-20894.09;5093928;28;20438;-72
2021/04/19 05:34:06;;;;;;;0.70;0.60;;;7.10;99.90;;;7.83;100.00;-20895.22;5096253;28;20808;-72
2021/04/19 05:36:34;;;;;;;1.10;1.00;;;7.10;99.90;;;7.78;100.00;-20893.81;5094757;28;20449;-72
2021/04/19 05:39:03;;;;;;;0.70;0.50;;;7.10;99.90;;;7.79;100.00;-20894.09;5086581;28;20965;-72
2021/04/19 05:41:31;;;;;;;0.80;0.80;;;7.10;99.90;;;7.75;100.00;-20893.25;5096593;28;20875;-74
2021/04/19 05:43:58;;;;;;;1.53;1.43;;;7.10;99.90;;;7.79;100.00;-20894.09;5096575;28;20828;-73
2021/04/19 05:46:25;;;;;;;0.70;0.60;;;7.10;99.90;;;7.75;100.00;-20893.25;5088050;28;20450;-73
2021/04/19 05:48:52;;;;;;;0.70;0.60;;;7.10;99.90;;;7.83;100.00;-20895.34;5094747;28;20426;-71
2021/04/19 05:51:25;;;;;;;0.70;0.60;;;7.10;99.90;;;7.80;100.00;-20894.50;5095090;28;20426;-74
2021/04/19 05:53:56;;;;;;;0.70;0.60;;;7.20;99.90;;;7.80;100.00;-20894.50;5096192;28;20413;-74
2021/04/19 05:56:39;;;;;;;0.70;0.50;;;7.10;99.90;;;7.87;100.00;-20896.47;5094794;28;20934;-74
2021/04/19 05:59:13;;;;;;;0.70;0.60;;;7.20;99.90;;;7.87;100.00;-20896.47;5082800;28;20454;-73
2021/04/19 06:01:47;;;;;;;0.70;0.60;;;7.20;99.90;;;7.91;100.00;-20897.44;5076098;28;20407;-73
2021/04/19 06:04:22;;;;;;;0.80;0.73;;;7.20;99.90;;;7.99;100.00;-20899.66;5074776;28;20862;-72
2021/04/19 06:07:02;;;;;;;0.70;0.60;;;7.20;99.90;;;8.06;100.00;-20901.44;5075457;28;20419;-73
2021/04/19 06:09:53;;;;;;;0.90;0.70;;;7.20;99.90;;;8.07;100.00;-20901.88;5081539;28;20529;-72
2021/04/19 06:12:47;;;;;;;0.70;0.50;;;7.30;99.90;;;8.14;100.00;-20903.81;5078880;28;20479;-73
2021/04/19 06:15:16;;;;;;;0.70;0.57;;;7.20;99.90;;;8.33;100.00;-20908.81;5094385;28;20783;-73
2021/04/19 06:17:47;;;;;;;0.70;0.70;;;7.20;99.90;;;8.26;100.00;-20906.88;5094510;28;20471;-74
2021/04/19 06:20:19;;;;;;;0.70;0.50;;;7.20;99.90;;;8.27;100.00;-20907.13;5086200;28;20470;-73
2021/04/19 06:22:50;;;;;;;0.70;0.60;;;7.20;99.90;;;8.16;100.00;-20904.38;5057742;28;20981;-73
2021/04/19 06:25:20;;;;;;;0.70;0.60;;;7.10;99.90;;;8.10;100.00;-20902.69;5094017;28;20444;-73
2021/04/19 06:27:59;;;;;;;0.70;0.60;;;7.20;99.90;;;8.20;100.00;-20905.47;5080804;28;20467;-73
2021/04/19 06:30:30;;;;;;;0.70;0.50;;;7.20;99.90;;;8.23;100.00;-20906.31;5075527;28;20906;-73
2021/04/19 06:32:58;;;;;;;1.20;0.83;;;7.20;99.90;;;8.08;100.00;-20902.00;5074733;28;20969;-72
2021/04/19 06:35:27;;;;;;;0.80;0.77;;;7.20;99.90;;;8.13;100.00;-20903.53;5084948;28;20454;-73
2021/04/19 06:37:57;;;;;;;0.70;0.50;;;7.20;99.90;;;8.24;100.00;-20906.59;5095232;28;20926;-75
2021/04/19 06:40:25;;;;;;;0.70;0.60;;;7.20;99.90;;;8.19;100.00;-20905.19;5094284;28;20993;-75
2021/04/19 06:42:54;;;;;;;0.70;0.50;;;7.20;99.90;;;8.29;100.00;-20907.84;5095245;28;20446;-75
2021/04/19 06:45:21;;;;;;;0.70;0.50;;;7.20;99.90;;;8.23;100.00;-20906.31;5095447;28;20472;-75
2021/04/19 06:47:52;;;;;;;0.70;0.50;;;7.20;99.90;;;8.26;100.00;-20906.88;5110938;28;20891;-75
2021/04/19 06:50:20;;;;;;;0.70;0.60;;;7.20;99.90;;;8.15;100.00;-20903.94;5073858;28;20533;-75
2021/04/19 06:52:47;;;;;;;0.70;0.60;;;7.30;99.90;;;8.09;100.00;-20902.41;5094251;28;20779;-75
2021/04/19 06:55:19;;;;;;;0.70;0.60;;;7.30;99.90;;;8.06;100.00;-20901.44;5110882;28;20835;-75
2021/04/19 06:57:51;;;;;;;1.10;1.00;;;7.30;99.90;;;8.11;100.00;-20902.97;5092646;28;20448;-75
2021/04/19 07:00:21;;;;;;;0.70;0.60;;;7.30;99.90;;;8.20;100.00;-20905.47;5074647;28;20450;-74
2021/04/19 07:02:51;;;;;;;0.70;0.50;;;7.30;99.90;;;8.48;100.00;-20912.97;5078783;28;20831;-75
2021/04/19 07:05:24;;;;;;;0.60;0.50;;;7.30;99.90;;;8.54;100.00;-20914.63;5075111;28;20427;-75
2021/04/19 07:08:25;;;;;;;0.70;0.50;;;7.40;99.90;;;8.89;100.00;-20924.19;5060229;28;20428;-75
2021/04/19 07:11:01;;;;;;;0.70;0.63;;;7.50;99.90;;;8.89;100.00;-20924.19;5073303;28;20873;-74
2021/04/19 07:13:30;;;;;;;3.27;2.07;;;7.50;99.90;;;9.15;100.00;-20931.13;5074509;28;20447;-75
2021/04/19 07:15:58;;;;;;;0.80;0.80;;;7.50;99.90;;;9.11;100.00;-20930.03;5087011;28;20444;-75
2021/04/19 07:18:25;;;;;;;0.70;0.60;;;7.70;99.90;;;9.19;100.00;-20932.38;5094959;28;20417;-75
2021/04/19 07:20:52;;;;;;;0.70;0.60;;;7.70;99.90;;;8.90;100.00;-20924.34;5078139;28;20442;-74
2021/04/19 07:23:20;;;;;;;0.70;0.60;;;7.60;99.90;;;9.21;100.00;-20932.66;5076896;28;20443;-74
2021/04/19 07:25:47;;;;;;;0.70;0.67;;;7.60;99.90;;;9.16;100.00;-20931.53;5093060;28;20557;-75
2021/04/19 07:28:16;;;;;;;0.63;0.50;;;7.60;99.90;;;8.83;100.00;-20922.41;5082916;28;20451;-73
2021/04/19 07:30:44;;;;;;;0.90;0.83;;;7.60;99.90;;;8.83;100.00;-20922.41;5073933;28;20428;-73
2021/04/19 07:33:25;;;;;;;0.90;0.80;;;7.70;99.90;;;8.82;100.00;-20922.25;5081332;28;20447;-73
2021/04/19 07:35:52;;;;;;;0.70;0.60;;;7.80;99.90;;;9.09;100.00;-20929.59;5083746;28;20452;-74
2021/04/19 07:38:32;;;;;;;0.70;0.50;;;7.70;99.90;;;8.83;100.00;-20922.41;5086644;28;20453;-75
2021/04/19 07:40:59;;;;;;;0.70;0.50;;;7.70;99.90;;;8.96;100.00;-20926.00;5093302;28;20523;-75
2021/04/19 07:43:28;;;;;;;0.70;0.50;;;7.80;99.90;;;9.09;100.00;-20929.59;5081184;28;20467;-75
2021/04/19 07:46:01;;;;;;;0.70;0.60;;;7.90;99.90;;;9.15;100.00;-20931.28;5073883;28;20430;-74
2021/04/19 07:48:32;;;;;;;0.70;0.60;;;7.80;99.90;;;9.01;100.00;-20927.38;5081553;28;20797;-75
2021/04/19 07:51:31;;;;;;;0.73;0.67;;;7.70;99.90;;;8.91;100.00;-20924.63;5073448;28;20435;-75
2021/04/19 07:54:22;;;;;;;0.70;0.60;;;7.60;99.90;;;8.83;100.00;-20922.53;5078005;28;20417;-74
2021/04/19 07:57:07;;;;;;;0.70;0.70;;;7.70;99.90;;;8.87;100.00;-20923.66;5090994;28;20450;-74
2021/04/19 07:59:38;;;;;;;0.70;0.53;;;7.60;99.90;;;8.86;100.00;-20923.22;5073532;28;20442;-74
2021/04/19 08:02:09;;;;;;;0.70;0.60;;;7.60;99.90;;;8.78;100.00;-20921.00;5073838;28;20415;-74
2021/04/19 08:04:46;;;;;;;0.80;0.73;;;7.50;99.90;;;8.57;100.00;-20915.47;5076580;28;20466;-74
2021/04/19 08:07:18;;;;;;;0.80;0.80;;;7.60;99.90;;;8.74;100.00;-20919.91;5091701;28;20443;-74
2021/04/19 08:09:55;;;;;;;0.70;0.53;;;7.60;99.90;;;8.91;100.00;-20924.63;5092368;28;20459;-75
2021/04/19 08:12:33;;;;;;;0.70;0.70;;;7.50;99.90;;;9.03;100.00;-20927.81;5089484;28;20459;-74
2021/04/19 08:15:02;;;;;;;0.70;0.50;;;7.40;99.90;;;9.00;100.00;-20927.13;5078138;28;20423;-74
2021/04/19 08:17:31;;;;;;;0.70;0.53;;;7.40;99.90;;;8.83;100.00;-20922.53;5108876;28;20426;-74
2021/04/19 08:20:08;;;;;;;0.63;0.50;;;7.30;99.90;;;8.71;100.00;-20919.34;5084539;28;20812;-74
2021/04/19 08:22:35;;;;;;;0.70;0.60;;;7.40;99.90;;;8.77;100.00;-20920.75;5082894;28;20453;-74
2021/04/19 08:25:16;;;;;;;0.70;0.60;;;7.30;99.90;;;8.71;100.00;-20919.34;5093202;28;20449;-74
2021/04/19 08:27:45;;;;;;;3.23;1.40;;;7.40;99.90;;;8.70;100.00;-20919.06;5092124;28;20945;-74
2021/04/19 08:30:16;;;;;;;0.70;0.60;;;7.40;99.90;;;8.82;100.00;-20922.13;5081024;28;20448;-74
2021/04/19 08:32:46;;;;;;;0.70;0.60;;;7.50;99.90;;;8.85;100.00;-20922.94;5092357;28;20407;-72
2021/04/19 08:35:15;;;;;;;0.70;0.60;;;7.50;99.90;;;8.81;100.00;-20921.84;5083072;28;20919;-73
2021/04/19 08:37:43;;;;;;;0.70;0.70;;;7.60;99.90;;;8.82;100.00;-20922.13;5072996;28;20443;-72
2021/04/19 08:40:15;;;;;;;0.70;0.50;;;7.60;99.90;;;8.94;100.00;-20925.44;5092034;28;20481;-72
2021/04/19 08:42:43;;;;;;;0.70;0.50;;;7.60;99.90;;;9.06;100.00;-20928.78;5091378;28;20463;-72
2021/04/19 08:45:13;;;;;;;0.70;0.57;;;7.70;99.90;;;9.39;100.00;-20937.78;5093048;28;20477;-73
2021/04/19 08:47:41;;;;;;;0.70;0.70;;;7.80;99.90;;;9.60;100.00;-20943.31;5108891;28;20419;-73
2021/04/19 08:50:11;;;;;;;1.13;1.03;;;7.80;99.90;;;9.50;100.00;-20940.53;5093957;28;20445;-72
2021/04/19 08:52:39;;;;;;;0.70;0.60;;;7.90;99.90;;;9.58;100.00;-20942.78;5096365;28;20894;-72
2021/04/19 08:55:10;;;;;;;1.13;1.03;;;8.00;99.90;;;9.77;100.00;-20947.88;5094878;28;20889;-72
2021/04/19 08:57:40;;;;;;;1.00;0.90;;;8.10;99.90;;;10.08;100.00;-20956.47;5075729;28;20455;-73
2021/04/19 09:00:09;;;;;;;0.80;0.70;;;8.20;99.90;;;9.97;100.00;-20953.44;5089511;28;20485;-72
2021/04/19 09:02:37;;;;;;;0.70;0.60;;;8.20;99.90;;;10.35;100.00;-20963.69;5097181;28;20979;-72
2021/04/19 09:05:10;;;;;;;0.73;0.70;;;8.20;99.90;;;10.26;100.00;-20961.19;5088251;28;20807;-72
2021/04/19 09:07:39;;;;;;;0.70;0.60;;;8.40;99.90;;;10.46;100.00;-20966.72;5077007;28;20421;-72
2021/04/19 09:10:11;;;;;;;0.70;0.60;;;8.40;99.90;;;10.65;100.00;-20971.84;5077203;28;20469;-72
2021/04/19 09:12:40;;;;;;;0.70;0.57;;;8.50;99.90;;;10.59;100.00;-20970.31;5075675;28;20962;-72
2021/04/19 09:15:24;;;;;;;0.70;0.50;;;8.70;99.90;;;11.08;100.00;-20983.44;5076272;28;20429;-73
2021/04/19 09:18:09;;;;;;;0.70;0.70;;;8.80;99.90;;;10.89;100.00;-20978.34;5092071;28;20429;-72
2021/04/19 09:20:49;;;;;;;0.70;0.57;;;8.90;99.90;;;10.62;100.00;-20971.16;5095146;28;20461;-72
2021/04/19 09:23:30;;;;;;;0.70;0.50;;;9.10;99.90;;;10.57;100.00;-20969.63;5095363;28;20519;-72
2021/04/19 09:25:59;;;;;;;0.70;0.60;;;9.20;99.90;;;11.18;100.00;-20986.22;5090677;28;20453;-72
2021/04/19 09:28:50;;;;;;;0.70;0.60;;;9.20;99.90;;;11.27;100.00;-20988.56;5075979;28;20449;-72
2021/04/19 09:31:17;;;;;;;0.70;0.50;;;9.30;99.90;;;11.83;100.00;-21003.75;5075817;28;20443;-73
2021/04/19 09:34:07;;;;;;;0.70;0.60;;;9.20;99.90;;;11.29;100.00;-20989.13;5091569;28;20608;-72
2021/04/19 09:36:50;;;;;;;0.70;0.70;;;9.50;99.90;;;12.04;100.00;-21009.44;5095589;28;20437;-72
2021/04/19 09:39:43;;;;;;;0.70;0.60;;;9.30;99.90;;;11.92;100.00;-21006.25;5078353;28;20557;-72
2021/04/19 09:42:10;;;;;;;0.80;0.73;;;9.40;99.90;;;11.40;100.00;-20992.16;5095177;28;20463;-72
2021/04/19 09:44:50;;;;;;;1.00;0.90;;;9.60;99.90;;;11.70;100.00;-21000.31;5111973;28;20445;-72
2021/04/19 09:47:51;;;;;;;0.70;0.60;;;9.70;99.90;;;11.27;100.00;-20988.56;5089437;28;20935;-73
2021/04/19 09:50:22;;;;;;;0.70;0.60;;;9.90;99.90;;;11.48;100.00;-20994.38;5077283;28;20440;-74
2021/04/19 09:52:52;;;;;;;0.70;0.70;;;9.80;99.90;;;11.57;100.00;-20996.72;5077030;28;20416;-73
2021/04/19 09:55:21;;;;;;;0.70;0.70;;;9.90;99.90;;;12.07;100.00;-21010.25;5095524;28;20434;-73
2021/04/19 09:57:49;;;;;;;0.73;0.63;;;9.80;99.90;;;11.86;100.00;-21004.59;5092199;28;20486;-74
2021/04/19 10:00:17;;;;;;;1.73;1.37;;;9.80;99.90;;;12.22;100.00;-21014.25;5087449;28;20579;-73
2021/04/19 10:02:45;;;;;;;1.57;1.47;;;9.70;99.90;;;11.53;100.00;-20995.63;5075559;28;20447;-72
2021/04/19 10:05:15;;;;;;;0.70;0.70;;;9.90;99.90;;;12.09;100.00;-21010.81;5075076;28;20428;-72
2021/04/19 10:07:46;;;;;;;0.73;0.70;;;9.90;99.90;;;12.22;100.00;-21014.25;5076035;28;20808;-73
2021/04/19 10:10:19;;;;;;;1.57;1.47;;;10.10;99.90;;;12.34;100.00;-21017.56;5090729;28;20934;-72
2021/04/19 10:12:47;;;;;;;0.80;0.80;;;10.20;99.90;;;12.13;100.00;-21011.91;5080259;28;20470;-72
2021/04/19 10:15:19;;;;;;;1.33;1.23;;;10.40;99.90;;;12.84;100.00;-21031.09;5075765;28;20422;-73
2021/04/19 10:17:47;;;;;;;0.77;0.70;;;10.30;99.90;;;13.28;100.00;-21042.97;5091676;28;20812;-72
2021/04/19 10:20:22;;;;;;;0.80;0.80;;;10.40;99.90;;;13.57;100.00;-21050.81;5091318;28;20446;-72
2021/04/19 10:23:09;;;;;;;0.93;0.93;;;10.80;99.90;;;13.35;100.00;-21044.88;5094494;28;20427;-73
2021/04/19 10:25:52;;;;;;;0.80;0.77;;;11.20;99.90;;;14.71;100.00;-21081.66;5091529;28;20556;-73
2021/04/19 10:28:27;;;;;;;2.20;2.10;;;11.20;99.90;;;13.93;100.00;-21060.47;5078125;28;20514;-73
2021/04/19 10:31:13;;;;;;;1.30;1.20;;;11.90;99.90;;;15.88;100.00;-21113.16;5074098;28;20510;-73
2021/04/19 10:33:44;;;;;;;1.40;1.30;;;12.60;99.90;;;15.35;100.00;-21098.72;5074651;28;20438;-72
2021/04/19 10:36:18;;;;;;;1.23;1.13;;;13.50;99.90;;;15.37;100.00;-21099.28;5075750;28;21141;-73
2021/04/19 10:38:49;;;;;;;0.93;0.90;;;13.40;99.90;;;14.97;100.00;-21088.56;5075623;28;20434;-73